Main page
METAR-TAF:

METAR-TAF

Airports :

Wick Airport

Wick, Scotland

latitude: 58-27N, longitude: 003-05W, elevation: 39 m

Current weather observation

The report was made 19 minutes ago, at 04:20 UTC
Wind 4 kt from the South/Southwest, varying between South and West/Southwest
Temperature 2°C
Humidity 87%
Pressure 1017 hPa
Visibility 10 km or more
light rain

METAR: EGPC 210420Z AUTO 20004KT 170V240 9999 -RA NCD 02/00 Q1017

Time: 04:39 (04:39 UTC)

Forecast

The report was made 2 hours and 42 minutes ago, at 01:57 UTC
Forecast valid from 21 at 03 UTC to 21 at 12 UTC
Wind 7 kt from the West
Visibility 10 km or more
Scattered clouds at a height of 3500 ft
Becoming
from 21 at 03 UTC to 21 at 06 UTC
Wind 15 kt from the South/Southwest
Temporary
from 21 at 06 UTC to 21 at 12 UTC
Wind 20 kt from the South/Southwest with gusts up to 30 kt

TAF: EGPC 210157Z 2103/2112 27007KT 9999 SCT035 BECMG 2103/2106 21015KT TEMPO 2106/2112 21020G30KT

Weather observations and forecasts of more than 4000 airports (METAR and TAF reports).

The available stations are represented by yellow and red dots on the map.

Hover mouse over dot to see the name of the station.

Then click to see weather observations and forecasts.

To change the map : click on the green buttons with a black cross to zoom in, on the green button with a dash to zoom out, or on the green arrows for adjacent maps.


METAR-TAF: